Time;durP1;ratioP1;P1;durP2;ratioP2;P2;SDS_P1;SDS_P2;PMS_P1;PMS_P2;Temp;Humidity;BMP_temperature;BMP_pressure;BME280_temperature;BME280_humidity;BME280_pressure;Samples;Min_cycle;Max_cycle;Signal;HPM_P1;HPM_P2
2021/04/10 00:01:41;;;;;;;14.30;5.28;;;10.30;84.90;;;;;;4993702;28;20088;-91
2021/04/10 00:04:11;;;;;;;13.90;4.95;;;10.30;85.40;;;;;;4993708;28;20101;-92
2021/04/10 00:06:37;;;;;;;14.57;5.20;;;10.30;85.30;;;;;;4994873;28;20381;-90
2021/04/10 00:09:05;;;;;;;9.02;5.00;;;10.20;85.40;;;;;;4975212;28;20023;-91
2021/04/10 00:11:31;;;;;;;8.93;4.55;;;10.20;85.60;;;;;;4982362;28;20053;-91
2021/04/10 00:13:56;;;;;;;9.93;4.50;;;10.20;85.70;;;;;;4993788;28;20112;-91
2021/04/10 00:16:22;;;;;;;11.32;3.97;;;10.20;85.50;;;;;;4974616;28;20054;-92
2021/04/10 00:18:48;;;;;;;10.70;4.07;;;10.10;85.60;;;;;;4977763;28;20026;-91
2021/04/10 00:21:13;;;;;;;15.85;4.28;;;10.10;85.70;;;;;;4993966;28;20107;-90
2021/04/10 00:23:43;;;;;;;14.38;4.00;;;10.10;86.00;;;;;;4977374;28;20026;-92
2021/04/10 00:26:14;;;;;;;9.25;3.70;;;10.00;85.90;;;;;;4995013;28;20110;-95
2021/04/10 00:28:40;;;;;;;11.68;3.25;;;10.00;85.80;;;;;;4994383;28;20129;-94
2021/04/10 00:31:07;;;;;;;10.00;3.65;;;10.00;85.90;;;;;;4973733;28;20055;-93
2021/04/10 00:33:37;;;;;;;13.77;4.22;;;9.90;85.90;;;;;;4982538;28;20522;-94
2021/04/10 00:36:04;;;;;;;10.97;3.90;;;9.90;86.60;;;;;;4977115;28;20026;-93
2021/04/10 00:38:32;;;;;;;10.90;4.07;;;9.90;88.40;;;;;;4993176;28;20018;-90
2021/04/10 00:40:59;;;;;;;12.50;4.40;;;9.80;87.70;;;;;;4992950;28;20036;-90
2021/04/10 00:43:25;;;;;;;14.23;3.95;;;9.80;87.60;;;;;;4976475;28;20112;-88
2021/04/10 00:45:51;;;;;;;11.02;3.67;;;9.80;87.50;;;;;;4993049;28;20475;-91
2021/04/10 00:48:17;;;;;;;10.32;3.25;;;9.80;87.20;;;;;;4961845;28;20089;-90
2021/04/10 00:50:43;;;;;;;12.82;3.95;;;9.80;86.80;;;;;;4970340;28;20035;-89
2021/04/10 00:53:09;;;;;;;11.93;3.20;;;9.80;86.70;;;;;;4987236;28;20030;-90
2021/04/10 00:55:36;;;;;;;9.18;3.08;;;9.70;86.90;;;;;;4994079;28;20029;-91
2021/04/10 00:58:01;;;;;;;7.10;2.85;;;9.70;86.90;;;;;;4981668;28;20472;-90
2021/04/10 01:00:27;;;;;;;8.82;3.03;;;9.70;86.80;;;;;;4957869;28;20161;-91
2021/04/10 01:02:53;;;;;;;8.05;3.00;;;9.70;86.60;;;;;;4976331;28;20053;-90
2021/04/10 01:05:18;;;;;;;9.13;3.13;;;9.70;86.60;;;;;;4992807;28;20506;-90
2021/04/10 01:07:44;;;;;;;11.52;3.30;;;9.60;86.50;;;;;;4976967;28;20034;-91
2021/04/10 01:10:11;;;;;;;6.93;2.95;;;9.60;86.40;;;;;;4976872;28;20042;-89
2021/04/10 01:12:42;;;;;;;8.68;3.10;;;9.60;86.20;;;;;;4994216;28;20087;-90
2021/04/10 01:15:45;;;;;;;9.00;2.97;;;9.60;86.40;;;;;;4993210;28;20040;-91
2021/04/10 01:18:23;;;;;;;10.60;2.88;;;9.50;87.00;;;;;;4995842;28;20388;-91
2021/04/10 01:21:07;;;;;;;10.00;3.03;;;9.50;87.40;;;;;;4976371;28;20084;-91
2021/04/10 01:23:55;;;;;;;11.63;3.17;;;9.50;87.20;;;;;;4993407;28;20084;-92
2021/04/10 01:26:55;;;;;;;9.23;2.40;;;9.50;87.20;;;;;;4979829;28;20022;-92
2021/04/10 01:29:23;;;;;;;9.57;3.38;;;9.40;87.10;;;;;;4993114;28;20050;-91
2021/04/10 01:31:53;;;;;;;10.65;2.97;;;9.40;87.40;;;;;;4993144;28;20117;-91
2021/04/10 01:34:27;;;;;;;5.68;2.50;;;9.40;87.50;;;;;;4979281;28;20027;-92
2021/04/10 01:36:57;;;;;;;11.40;3.65;;;9.40;87.60;;;;;;4992959;28;20030;-90
2021/04/10 01:39:25;;;;;;;8.32;3.00;;;9.30;87.50;;;;;;4979258;28;20031;-91
2021/04/10 01:41:53;;;;;;;11.05;3.08;;;9.30;87.50;;;;;;4995837;28;20374;-91
2021/04/10 01:44:20;;;;;;;7.38;2.50;;;9.30;87.60;;;;;;4996071;28;20045;-90
2021/04/10 01:46:48;;;;;;;12.07;3.10;;;9.30;87.80;;;;;;4980674;28;20094;-92
2021/04/10 01:49:14;;;;;;;10.45;3.22;;;9.30;87.70;;;;;;5016781;28;20030;-91
2021/04/10 01:51:40;;;;;;;10.48;3.08;;;9.20;87.80;;;;;;5016653;28;20034;-91
2021/04/10 01:54:07;;;;;;;9.15;3.05;;;9.30;87.90;;;;;;5016855;28;20034;-91
2021/04/10 01:56:36;;;;;;;9.68;3.03;;;9.20;87.90;;;;;;4983489;28;20026;-93
2021/04/10 01:59:02;;;;;;;8.75;3.17;;;9.20;87.60;;;;;;4998087;28;20037;-92
2021/04/10 02:01:29;;;;;;;7.65;2.90;;;9.20;87.90;;;;;;4999070;28;20034;-90
2021/04/10 02:03:56;;;;;;;8.60;3.20;;;9.20;88.20;;;;;;4995620;28;20085;-91
2021/04/10 02:06:23;;;;;;;9.40;3.10;;;9.10;88.00;;;;;;4999788;28;20022;-92
2021/04/10 02:08:51;;;;;;;8.73;2.90;;;9.10;88.00;;;;;;4969752;28;20030;-91
2021/04/10 02:11:19;;;;;;;8.00;3.45;;;9.10;88.30;;;;;;4999243;28;20117;-89
2021/04/10 02:13:45;;;;;;;7.57;2.60;;;9.10;88.20;;;;;;4982713;28;20030;-88
2021/04/10 02:16:12;;;;;;;11.13;3.13;;;9.00;88.10;;;;;;4982825;28;20037;-89
2021/04/10 02:18:39;;;;;;;10.90;3.10;;;9.00;88.40;;;;;;5016414;28;20026;-89
2021/04/10 02:21:09;;;;;;;8.82;2.90;;;9.00;88.30;;;;;;4998774;28;20030;-89
2021/04/10 02:23:39;;;;;;;8.45;2.90;;;9.00;88.40;;;;;;4969407;28;20027;-90
2021/04/10 02:26:06;;;;;;;12.45;4.22;;;9.00;88.70;;;;;;4997557;28;20038;-89
2021/04/10 02:28:32;;;;;;;10.35;3.05;;;9.00;88.70;;;;;;4999167;28;20037;-90
2021/04/10 02:31:00;;;;;;;12.13;3.80;;;9.00;88.50;;;;;;5015349;28;20033;-89
2021/04/10 02:33:39;;;;;;;9.32;3.38;;;8.90;88.80;;;;;;5016378;28;20046;-88
2021/04/10 02:36:07;;;;;;;7.68;2.53;;;8.90;88.80;;;;;;5003141;28;20037;-89
2021/04/10 02:38:34;;;;;;;10.70;3.65;;;8.90;88.80;;;;;;4979823;28;20109;-89
2021/04/10 02:41:18;;;;;;;10.43;3.15;;;8.90;88.60;;;;;;4982976;28;20120;-89
2021/04/10 02:43:52;;;;;;;14.98;4.05;;;8.90;88.50;;;;;;4998079;28;20052;-89
2021/04/10 02:46:20;;;;;;;9.82;3.40;;;8.80;88.70;;;;;;5016016;28;20018;-89
2021/04/10 02:48:59;;;;;;;8.05;3.20;;;8.80;88.80;;;;;;4982183;28;20045;-87
2021/04/10 02:51:40;;;;;;;9.38;3.10;;;8.80;89.10;;;;;;4998992;28;20093;-91
2021/04/10 02:54:07;;;;;;;8.15;3.00;;;8.80;89.20;;;;;;4997811;28;20060;-90
2021/04/10 02:56:38;;;;;;;9.95;3.15;;;8.80;89.20;;;;;;4982508;28;20029;-90
2021/04/10 02:59:07;;;;;;;12.25;4.75;;;8.70;89.20;;;;;;5014284;28;20030;-90
2021/04/10 03:01:34;;;;;;;9.32;3.53;;;8.70;89.20;;;;;;4998868;28;20057;-90
2021/04/10 03:04:01;;;;;;;10.60;3.67;;;8.60;89.50;;;;;;4997920;28;20022;-91
2021/04/10 03:06:29;;;;;;;8.35;3.35;;;8.60;89.60;;;;;;4998275;28;20026;-90
2021/04/10 03:08:57;;;;;;;10.70;3.40;;;8.60;89.70;;;;;;4997912;28;20038;-89
2021/04/10 03:11:23;;;;;;;7.45;3.38;;;8.60;89.80;;;;;;4966988;28;20121;-90
2021/04/10 03:13:49;;;;;;;7.82;3.95;;;8.60;89.80;;;;;;5015128;28;20034;-89
2021/04/10 03:16:15;;;;;;;9.57;3.58;;;8.50;89.90;;;;;;5015408;28;20046;-90
2021/04/10 03:18:47;;;;;;;10.50;3.80;;;8.50;90.00;;;;;;4981803;28;20037;-90
2021/04/10 03:21:12;;;;;;;10.30;4.00;;;8.50;90.20;;;;;;4997011;28;20465;-90
2021/04/10 03:23:39;;;;;;;10.73;3.95;;;8.50;90.20;;;;;;4996985;28;20022;-90
2021/04/10 03:26:06;;;;;;;12.23;3.78;;;8.50;90.20;;;;;;4997419;28;20022;-89
2021/04/10 03:28:32;;;;;;;10.30;3.88;;;8.40;90.20;;;;;;4997389;28;20026;-91
2021/04/10 03:31:04;;;;;;;11.57;3.92;;;8.50;90.20;;;;;;4981918;28;20041;-91
2021/04/10 03:33:33;;;;;;;8.32;3.30;;;8.50;90.30;;;;;;4982761;28;20061;-89
2021/04/10 03:36:02;;;;;;;13.15;3.95;;;8.50;90.30;;;;;;5015407;28;20053;-90
2021/04/10 03:38:28;;;;;;;12.90;4.30;;;8.50;90.30;;;;;;5014444;28;20030;-90
2021/04/10 03:40:54;;;;;;;9.55;3.78;;;8.40;90.00;;;;;;4981530;28;20037;-90
2021/04/10 03:43:20;;;;;;;9.70;3.90;;;8.40;90.20;;;;;;4997388;28;20046;-90
2021/04/10 03:45:46;;;;;;;11.93;3.80;;;8.40;90.10;;;;;;4981182;28;20509;-89
2021/04/10 03:48:12;;;;;;;8.40;3.63;;;8.40;90.20;;;;;;4997378;28;20106;-90
2021/04/10 03:50:39;;;;;;;11.00;3.53;;;8.30;90.20;;;;;;5014785;28;20040;-90
2021/04/10 03:53:05;;;;;;;10.20;4.20;;;8.30;90.30;;;;;;4997032;28;20037;-90
2021/04/10 03:55:31;;;;;;;14.68;4.75;;;8.30;90.30;;;;;;4979811;28;20026;-90
2021/04/10 03:58:00;;;;;;;9.75;4.10;;;8.30;90.30;;;;;;4977659;28;20117;-88
2021/04/10 04:00:25;;;;;;;10.27;4.30;;;8.30;90.40;;;;;;4980597;28;20033;-89
2021/04/10 04:02:51;;;;;;;12.38;4.22;;;8.20;90.40;;;;;;4981194;28;20022;-89
2021/04/10 04:05:17;;;;;;;12.98;4.72;;;8.20;90.30;;;;;;4981438;28;20378;-89
2021/04/10 04:07:42;;;;;;;11.38;4.18;;;8.20;90.40;;;;;;4981261;28;20022;-90
2021/04/10 04:10:08;;;;;;;10.55;3.92;;;8.20;90.30;;;;;;4977127;28;20037;-89
2021/04/10 04:12:34;;;;;;;9.38;4.50;;;8.20;90.50;;;;;;4996420;28;20065;-90
2021/04/10 04:15:00;;;;;;;12.20;4.13;;;8.20;90.60;;;;;;4997505;28;20033;-88
2021/04/10 04:17:25;;;;;;;13.05;4.60;;;8.10;90.70;;;;;;4997478;28;20107;-90
2021/04/10 04:19:51;;;;;;;10.88;4.43;;;8.10;90.70;;;;;;4981361;28;20560;-90
2021/04/10 04:22:16;;;;;;;14.70;5.22;;;8.20;90.70;;;;;;4961268;28;20124;-90
2021/04/10 04:24:42;;;;;;;12.05;5.05;;;8.10;90.70;;;;;;5010570;28;20478;-91
2021/04/10 04:27:08;;;;;;;12.55;5.00;;;8.10;90.70;;;;;;4961928;28;20482;-90
2021/04/10 04:29:34;;;;;;;13.82;5.60;;;8.10;90.70;;;;;;4992968;28;20100;-90
2021/04/10 04:31:59;;;;;;;12.27;5.10;;;8.10;90.80;;;;;;4980557;28;20026;-91
2021/04/10 04:34:25;;;;;;;13.95;5.43;;;8.00;90.80;;;;;;4996944;28;20034;-90
2021/04/10 04:36:51;;;;;;;13.02;5.22;;;8.10;90.80;;;;;;4980615;28;20022;-92
2021/04/10 04:39:16;;;;;;;10.65;4.75;;;8.00;90.80;;;;;;4980649;28;20077;-91
2021/04/10 04:41:42;;;;;;;11.20;5.15;;;8.00;90.80;;;;;;5014517;28;20022;-92
2021/04/10 04:44:08;;;;;;;14.23;4.70;;;8.00;90.80;;;;;;5013775;28;20529;-90
2021/04/10 04:46:33;;;;;;;14.38;5.05;;;8.00;90.90;;;;;;4980764;28;20481;-90
2021/04/10 04:48:59;;;;;;;10.82;4.85;;;8.00;90.80;;;;;;5013922;28;20033;-88
2021/04/10 04:51:25;;;;;;;9.93;4.85;;;8.00;90.80;;;;;;4996057;28;20046;-90
2021/04/10 04:53:51;;;;;;;13.50;5.25;;;8.00;90.90;;;;;;4995920;28;20021;-89
2021/04/10 04:56:16;;;;;;;10.13;4.70;;;8.00;90.90;;;;;;4980230;28;20466;-90
2021/04/10 04:58:42;;;;;;;11.02;5.07;;;8.00;91.00;;;;;;4979668;28;20037;-89
2021/04/10 05:01:08;;;;;;;10.80;4.72;;;8.00;90.90;;;;;;5013730;28;20081;-90
2021/04/10 05:03:33;;;;;;;11.65;4.68;;;7.90;91.00;;;;;;4996492;28;20038;-89
2021/04/10 05:05:59;;;;;;;12.38;4.70;;;7.90;90.90;;;;;;4980629;28;20117;-90
2021/04/10 05:08:24;;;;;;;11.20;4.60;;;7.90;90.90;;;;;;4996455;28;20053;-88
2021/04/10 05:10:50;;;;;;;11.65;4.53;;;7.90;91.00;;;;;;4996561;28;20073;-89
2021/04/10 05:13:16;;;;;;;9.63;4.70;;;8.00;91.10;;;;;;4952467;28;20031;-89
2021/04/10 05:15:41;;;;;;;15.27;5.22;;;7.90;91.00;;;;;;5011150;28;20026;-89
2021/04/10 05:18:07;;;;;;;12.68;5.05;;;7.90;90.90;;;;;;4996954;28;20057;-89
2021/04/10 05:20:33;;;;;;;12.23;4.75;;;7.90;90.90;;;;;;5013755;28;20026;-89
2021/04/10 05:22:59;;;;;;;16.60;5.10;;;7.90;90.90;;;;;;4982389;28;20034;-89
2021/04/10 05:25:25;;;;;;;9.98;4.68;;;7.90;90.90;;;;;;4972213;28;20121;-90
2021/04/10 05:27:52;;;;;;;12.25;4.97;;;7.90;91.00;;;;;;4967616;28;20442;-90
2021/04/10 05:30:18;;;;;;;11.30;4.97;;;7.90;91.00;;;;;;5017366;28;20536;-89
2021/04/10 05:32:44;;;;;;;15.50;5.22;;;7.90;91.00;;;;;;5016895;28;20075;-88
2021/04/10 05:35:11;;;;;;;12.02;4.80;;;7.90;91.00;;;;;;4980333;28;20113;-90
2021/04/10 05:37:36;;;;;;;9.60;4.53;;;7.80;91.00;;;;;;4984293;28;20026;-88
2021/04/10 05:40:04;;;;;;;13.05;5.00;;;7.80;91.00;;;;;;4980519;28;20117;-89
2021/04/10 05:42:30;;;;;;;14.77;4.63;;;7.90;91.00;;;;;;5015711;28;20046;-90
2021/04/10 05:44:56;;;;;;;10.93;5.25;;;7.80;91.00;;;;;;4984328;28;20037;-90
2021/04/10 05:47:22;;;;;;;12.00;4.50;;;7.80;91.10;;;;;;4999168;28;20029;-90
2021/04/10 05:49:48;;;;;;;9.57;4.47;;;7.80;91.10;;;;;;4983774;28;20073;-90
2021/04/10 05:52:14;;;;;;;11.50;4.38;;;7.80;91.10;;;;;;5016646;28;20037;-90
2021/04/10 05:54:40;;;;;;;13.18;4.00;;;7.80;91.00;;;;;;5000282;28;20084;-88
2021/04/10 05:57:05;;;;;;;9.93;3.83;;;7.80;90.90;;;;;;4999580;28;20076;-91
2021/04/10 05:59:31;;;;;;;11.07;3.70;;;7.80;90.80;;;;;;5016202;28;20029;-92
2021/04/10 06:01:57;;;;;;;10.73;3.92;;;7.80;90.80;;;;;;4983500;28;20037;-90
2021/04/10 06:04:23;;;;;;;10.35;3.78;;;7.80;90.70;;;;;;4970728;28;20035;-90
2021/04/10 06:06:48;;;;;;;11.45;3.70;;;7.80;90.70;;;;;;4999673;28;20026;-89
2021/04/10 06:09:14;;;;;;;11.43;3.25;;;7.80;90.70;;;;;;4983390;28;20034;-90
2021/04/10 06:11:39;;;;;;;11.50;3.22;;;7.80;90.60;;;;;;4999671;28;20084;-90
2021/04/10 06:14:05;;;;;;;11.32;3.70;;;7.80;90.60;;;;;;4983527;28;20060;-89
2021/04/10 06:16:31;;;;;;;12.18;3.40;;;7.80;90.50;;;;;;4979427;28;20023;-89
2021/04/10 06:18:57;;;;;;;13.75;3.53;;;7.80;90.60;;;;;;4999223;28;20089;-90
2021/04/10 06:21:23;;;;;;;9.60;3.75;;;7.80;90.70;;;;;;4966330;28;20061;-90
2021/04/10 06:23:48;;;;;;;9.30;2.70;;;7.80;90.60;;;;;;4983121;28;20053;-88
2021/04/10 06:26:14;;;;;;;12.68;3.85;;;7.80;90.60;;;;;;4979856;28;20074;-89
2021/04/10 06:28:40;;;;;;;11.98;3.80;;;7.80;90.50;;;;;;4979895;28;20022;-90
2021/04/10 06:31:06;;;;;;;8.70;3.05;;;7.80;90.60;;;;;;4993939;28;20037;-90
2021/04/10 06:33:32;;;;;;;8.98;4.00;;;7.90;90.60;;;;;;4997473;28;20065;-90
2021/04/10 06:35:57;;;;;;;11.43;3.58;;;7.90;90.50;;;;;;4979910;28;20065;-90
2021/04/10 06:38:23;;;;;;;12.40;3.95;;;7.90;90.50;;;;;;4990383;28;20364;-89
2021/04/10 06:40:49;;;;;;;15.40;4.65;;;7.90;90.40;;;;;;5001127;28;20032;-88
2021/04/10 06:43:16;;;;;;;10.13;3.92;;;7.90;90.10;;;;;;4980901;28;20054;-91
2021/04/10 06:45:42;;;;;;;13.32;3.92;;;7.80;89.60;;;;;;4998792;28;20458;-90
2021/04/10 06:48:14;;;;;;;10.38;3.30;;;7.80;90.00;;;;;;4981820;28;20108;-90
2021/04/10 06:50:44;;;;;;;10.48;3.63;;;7.90;90.20;;;;;;4982826;28;20429;-90
2021/04/10 06:53:15;;;;;;;6.93;3.03;;;7.90;90.30;;;;;;4993069;28;20061;-90
2021/04/10 06:55:48;;;;;;;11.73;3.95;;;7.90;90.40;;;;;;4994015;28;20022;-90
2021/04/10 06:58:22;;;;;;;12.15;3.63;;;7.90;90.30;;;;;;4991942;28;20125;-88
2021/04/10 07:00:52;;;;;;;10.43;2.95;;;7.90;90.20;;;;;;4984221;28;20030;-90
2021/04/10 07:03:18;;;;;;;8.17;3.33;;;7.90;90.20;;;;;;4998143;28;20022;-90
2021/04/10 07:05:44;;;;;;;10.57;3.33;;;7.90;90.00;;;;;;4984857;28;20275;-90
2021/04/10 07:08:09;;;;;;;8.80;4.07;;;7.90;90.00;;;;;;4978938;28;20031;-90
2021/04/10 07:10:35;;;;;;;11.65;3.50;;;7.90;90.10;;;;;;4964290;28;20046;-90
2021/04/10 07:13:02;;;;;;;13.82;3.88;;;7.90;90.20;;;;;;4981861;28;20027;-90
2021/04/10 07:15:28;;;;;;;10.65;3.13;;;7.90;90.10;;;;;;4983011;28;20050;-89
2021/04/10 07:17:55;;;;;;;14.82;4.15;;;7.90;90.00;;;;;;4998574;28;20094;-89
2021/04/10 07:20:22;;;;;;;8.20;3.25;;;7.90;90.10;;;;;;4998924;28;20084;-90
2021/04/10 07:23:13;;;;;;;9.65;3.70;;;7.90;90.20;;;;;;4982371;28;20021;-90
2021/04/10 07:25:44;;;;;;;11.32;3.95;;;7.90;90.20;;;;;;4998022;28;20030;-89
2021/04/10 07:28:23;;;;;;;11.25;3.90;;;7.90;90.20;;;;;;4998376;28;20033;-89
2021/04/10 07:31:06;;;;;;;9.15;3.75;;;7.90;90.20;;;;;;4998122;28;20045;-90
2021/04/10 07:33:33;;;;;;;10.02;3.83;;;7.90;90.30;;;;;;4999196;28;20101;-90
2021/04/10 07:36:01;;;;;;;11.93;3.97;;;8.00;90.50;;;;;;4997927;28;20030;-88
2021/04/10 07:38:35;;;;;;;8.60;3.63;;;8.00;90.60;;;;;;4985015;28;20053;-90
2021/04/10 07:41:04;;;;;;;10.32;3.58;;;8.00;90.70;;;;;;4998989;28;20029;-93
2021/04/10 07:43:40;;;;;;;8.82;3.92;;;8.10;90.80;;;;;;4997605;28;20049;-88
2021/04/10 07:46:26;;;;;;;11.13;3.45;;;8.10;90.50;;;;;;4989026;28;20040;-90
2021/04/10 07:49:18;;;;;;;8.77;3.80;;;8.10;90.40;;;;;;5012938;28;20054;-90
2021/04/10 07:51:54;;;;;;;8.77;3.67;;;8.10;90.60;;;;;;4988685;28;20054;-89
2021/04/10 07:54:43;;;;;;;11.45;4.25;;;8.20;90.70;;;;;;4989457;28;20034;-89
2021/04/10 07:57:12;;;;;;;9.27;4.15;;;8.20;90.70;;;;;;4996967;28;20497;-88
2021/04/10 07:59:49;;;;;;;9.68;3.58;;;8.30;90.80;;;;;;4976949;28;20039;-89
2021/04/10 08:02:17;;;;;;;7.22;3.25;;;8.30;90.70;;;;;;5005144;28;20049;-87
2021/04/10 08:04:58;;;;;;;9.75;3.70;;;8.30;90.60;;;;;;4980696;28;20034;-89
2021/04/10 08:07:30;;;;;;;12.00;3.88;;;8.30;90.60;;;;;;4996746;28;20083;-89
2021/04/10 08:10:03;;;;;;;11.05;3.80;;;8.40;90.10;;;;;;4978508;28;20044;-89
2021/04/10 08:12:31;;;;;;;8.20;3.38;;;8.40;90.20;;;;;;4981572;28;20033;-89
2021/04/10 08:14:57;;;;;;;12.73;3.63;;;8.40;90.30;;;;;;4982007;28;20040;-90
2021/04/10 08:17:38;;;;;;;8.27;3.55;;;8.40;90.30;;;;;;4997328;28;20145;-90
2021/04/10 08:20:28;;;;;;;10.73;3.45;;;8.40;90.10;;;;;;5002030;28;20482;-88
2021/04/10 08:23:21;;;;;;;9.50;3.60;;;8.40;90.10;;;;;;5015159;28;20540;-88
2021/04/10 08:25:48;;;;;;;7.35;2.90;;;8.50;90.20;;;;;;4996544;28;20466;-91
2021/04/10 08:28:17;;;;;;;7.78;3.00;;;8.50;90.30;;;;;;4981309;28;20120;-89
2021/04/10 08:30:43;;;;;;;10.10;3.22;;;8.50;90.20;;;;;;4987484;28;20402;-90
2021/04/10 08:33:09;;;;;;;7.65;3.78;;;8.60;90.30;;;;;;4994796;28;20026;-90
2021/04/10 08:35:36;;;;;;;8.50;3.20;;;8.60;90.10;;;;;;4984935;28;20585;-90
2021/04/10 08:38:04;;;;;;;8.80;3.20;;;8.60;90.10;;;;;;4997820;28;20025;-90
2021/04/10 08:40:31;;;;;;;9.82;3.33;;;8.70;90.10;;;;;;4996533;28;20029;-90
2021/04/10 08:42:59;;;;;;;11.25;3.97;;;8.70;90.20;;;;;;4997116;28;20077;-90
2021/04/10 08:45:36;;;;;;;8.02;3.17;;;8.80;90.20;;;;;;4996802;28;20076;-90
2021/04/10 08:48:09;;;;;;;7.70;3.05;;;8.80;90.00;;;;;;4982536;28;20414;-95
2021/04/10 08:50:39;;;;;;;9.38;3.35;;;8.80;90.10;;;;;;4998053;28;20065;-90
2021/04/10 08:53:09;;;;;;;15.93;4.17;;;8.80;90.00;;;;;;4996458;28;20482;-90
2021/04/10 08:55:35;;;;;;;13.90;3.75;;;8.90;89.70;;;;;;4995652;28;20269;-90
2021/04/10 08:58:21;;;;;;;10.13;3.60;;;8.90;89.70;;;;;;4972780;28;20037;-89
2021/04/10 09:00:53;;;;;;;10.55;3.05;;;8.90;89.50;;;;;;5014378;28;20068;-89
2021/04/10 09:03:19;;;;;;;12.00;3.20;;;8.90;89.30;;;;;;4999627;28;20462;-90
2021/04/10 09:05:46;;;;;;;13.93;3.80;;;8.90;88.70;;;;;;4967413;28;20030;-90
2021/04/10 09:08:22;;;;;;;6.80;2.65;;;8.90;89.00;;;;;;5000232;28;20030;-90
2021/04/10 09:10:50;;;;;;;14.38;4.30;;;9.00;88.70;;;;;;4999220;28;20038;-89
2021/04/10 09:13:15;;;;;;;8.25;3.60;;;9.00;88.20;;;;;;4983601;28;20096;-91
2021/04/10 09:15:42;;;;;;;9.63;3.22;;;9.00;88.50;;;;;;5000054;28;20077;-94
2021/04/10 09:18:08;;;;;;;7.97;2.67;;;9.00;86.80;;;;;;4967505;28;20025;-90
2021/04/10 09:20:47;;;;;;;16.52;3.65;;;9.00;87.80;;;;;;5000594;28;20037;-91
2021/04/10 09:23:22;;;;;;;11.48;3.90;;;9.10;86.70;;;;;;4999702;28;20037;-88
2021/04/10 09:26:11;;;;;;;12.13;3.60;;;9.00;86.70;;;;;;5017433;28;20033;-90
2021/04/10 09:28:55;;;;;;;25.88;4.90;;;9.00;86.60;;;;;;4999123;28;20116;-90
2021/04/10 09:31:36;;;;;;;13.40;3.58;;;9.00;86.80;;;;;;5016622;28;20429;-88
2021/04/10 09:34:03;;;;;;;47.33;6.30;;;8.90;86.20;;;;;;5001391;28;20032;-88
2021/04/10 09:36:55;;;;;;;12.68;3.28;;;8.90;87.00;;;;;;4987229;28;20041;-89
2021/04/10 09:39:55;;;;;;;14.57;3.60;;;9.00;87.90;;;;;;4983859;28;20108;-91
2021/04/10 09:42:44;;;;;;;10.68;3.13;;;9.00;87.60;;;;;;5004945;28;20440;-92
2021/04/10 09:45:23;;;;;;;10.57;3.40;;;9.00;88.00;;;;;;5014225;28;20523;-93
2021/04/10 09:47:58;;;;;;;7.88;3.40;;;9.00;87.70;;;;;;5019165;28;20026;-91
2021/04/10 09:50:27;;;;;;;8.57;3.08;;;9.10;88.00;;;;;;4989255;28;20034;-92
2021/04/10 09:53:23;;;;;;;9.50;2.90;;;9.10;88.40;;;;;;4999571;28;20034;-92
2021/04/10 09:56:04;;;;;;;9.73;3.78;;;9.20;88.00;;;;;;4973180;28;20092;-92
2021/04/10 09:58:37;;;;;;;13.40;3.83;;;9.20;87.90;;;;;;4999963;28;20036;-91
2021/04/10 10:01:12;;;;;;;9.45;3.20;;;9.20;87.40;;;;;;4989338;28;20034;-93
2021/04/10 10:03:37;;;;;;;10.07;2.88;;;9.30;88.10;;;;;;4999880;28;20466;-90
2021/04/10 10:06:16;;;;;;;11.73;3.55;;;9.30;87.60;;;;;;5006828;28;20030;-89
2021/04/10 10:08:43;;;;;;;9.88;2.83;;;9.30;85.70;;;;;;4997579;28;20076;-89
2021/04/10 10:11:10;;;;;;;11.13;3.90;;;9.30;86.40;;;;;;4964774;28;20031;-90
2021/04/10 10:13:38;;;;;;;14.48;3.80;;;9.30;86.00;;;;;;5012094;28;20030;-89
2021/04/10 10:16:04;;;;;;;10.50;3.15;;;9.30;86.00;;;;;;4996422;28;20031;-92
2021/04/10 10:18:56;;;;;;;8.43;3.40;;;9.30;86.20;;;;;;4984952;28;20121;-89
2021/04/10 10:21:23;;;;;;;11.30;3.92;;;9.30;85.90;;;;;;4983348;28;20117;-90
2021/04/10 10:23:55;;;;;;;11.43;3.33;;;9.20;86.20;;;;;;4977187;28;20089;-88
2021/04/10 10:26:27;;;;;;;15.15;3.97;;;9.20;86.70;;;;;;4998519;28;20371;-89
2021/04/10 10:28:59;;;;;;;12.93;3.63;;;9.30;87.40;;;;;;4998817;28;20018;-91
2021/04/10 10:31:27;;;;;;;9.75;3.50;;;9.30;86.70;;;;;;4998937;28;20091;-89
2021/04/10 10:33:53;;;;;;;9.85;3.53;;;9.40;87.30;;;;;;4998593;28;20034;-87
2021/04/10 10:36:20;;;;;;;9.82;3.88;;;9.30;87.30;;;;;;4995680;28;20030;-90
2021/04/10 10:38:48;;;;;;;11.73;4.22;;;9.40;87.70;;;;;;5016253;28;20037;-89
2021/04/10 10:41:15;;;;;;;11.15;3.60;;;9.40;87.40;;;;;;4975366;28;20036;-91
2021/04/10 10:43:42;;;;;;;10.38;3.45;;;9.40;88.30;;;;;;4998958;28;20042;-87
2021/04/10 10:46:18;;;;;;;9.10;3.60;;;9.40;88.90;;;;;;4997864;28;20026;-88
2021/04/10 10:48:43;;;;;;;9.95;4.03;;;9.50;88.80;;;;;;5016154;28;20030;-89
2021/04/10 10:51:12;;;;;;;13.38;5.22;;;9.50;89.40;;;;;;4998259;28;20828;-91
2021/04/10 10:53:46;;;;;;;11.13;4.13;;;9.50;88.90;;;;;;4991985;28;20117;-90
2021/04/10 10:56:26;;;;;;;14.23;4.88;;;9.50;88.60;;;;;;4991954;28;20509;-90
2021/04/10 10:58:54;;;;;;;13.77;4.85;;;9.40;89.10;;;;;;4988045;28;20027;-89
2021/04/10 11:01:21;;;;;;;15.18;4.57;;;9.40;89.20;;;;;;4999217;28;20057;-91
2021/04/10 11:03:56;;;;;;;14.45;5.20;;;9.40;89.30;;;;;;4996255;28;20546;-90
2021/04/10 11:06:24;;;;;;;16.80;5.47;;;9.40;89.00;;;;;;5017663;28;20101;-89
2021/04/10 11:08:50;;;;;;;11.98;5.15;;;9.30;90.00;;;;;;5016664;28;20110;-91
2021/04/10 11:11:19;;;;;;;16.90;5.53;;;9.30;90.20;;;;;;4977083;28;20042;-94
2021/04/10 11:13:46;;;;;;;10.98;5.28;;;9.30;90.40;;;;;;4991577;28;20029;-91
2021/04/10 11:16:13;;;;;;;17.48;6.32;;;9.30;90.70;;;;;;4999035;28;20025;-92
2021/04/10 11:18:39;;;;;;;15.10;6.50;;;9.30;91.10;;;;;;4997017;28;20471;-92
2021/04/10 11:21:19;;;;;;;13.20;6.55;;;9.30;91.20;;;;;;4998139;28;20037;-94
2021/04/10 11:24:02;;;;;;;13.68;6.57;;;9.30;91.20;;;;;;4985233;28;20019;-90
2021/04/10 11:26:46;;;;;;;16.27;7.20;;;9.40;91.20;;;;;;5014394;28;20014;-91
2021/04/10 11:29:21;;;;;;;15.82;7.72;;;9.40;91.40;;;;;;4997531;28;20132;-90
2021/04/10 11:32:05;;;;;;;17.17;8.13;;;9.40;91.40;;;;;;5016356;28;20549;-92
2021/04/10 11:34:32;;;;;;;21.17;9.20;;;9.40;91.50;;;;;;5011371;28;20060;-95
2021/04/10 11:36:58;;;;;;;16.67;9.88;;;9.40;91.60;;;;;;5001975;28;20033;-93
2021/04/10 11:39:27;;;;;;;14.82;9.13;;;9.30;91.60;;;;;;4994827;28;20049;-92
2021/04/10 11:41:53;;;;;;;15.52;8.73;;;9.30;91.50;;;;;;4998292;28;20034;-93
2021/04/10 11:44:20;;;;;;;18.75;9.70;;;9.30;92.00;;;;;;4993882;28;20042;-91
2021/04/10 11:46:48;;;;;;;16.45;9.90;;;9.30;92.00;;;;;;4975359;28;20030;-94
2021/04/10 11:49:29;;;;;;;18.45;9.65;;;9.30;91.90;;;;;;4998269;23;20119;-83
2021/04/10 11:52:07;;;;;;;19.73;11.55;;;9.30;92.30;;;;;;4973076;28;20040;-83
2021/04/10 11:54:34;;;;;;;20.95;10.88;;;9.20;92.00;;;;;;4982855;28;20095;-83
2021/04/10 11:57:00;;;;;;;19.70;11.82;;;9.20;92.10;;;;;;4992939;28;20045;-83
2021/04/10 11:59:36;;;;;;;17.20;11.75;;;9.20;92.40;;;;;;4980276;28;20018;-83
2021/04/10 12:02:05;;;;;;;17.25;10.20;;;9.20;92.30;;;;;;4993362;28;20018;-83
2021/04/10 12:04:37;;;;;;;20.77;11.18;;;9.20;92.60;;;;;;4980580;28;20464;-83
2021/04/10 12:07:08;;;;;;;18.25;11.40;;;9.30;92.80;;;;;;4993976;28;20041;-83
2021/04/10 12:09:38;;;;;;;20.88;11.35;;;9.30;92.60;;;;;;5006356;28;20026;-83
2021/04/10 12:12:06;;;;;;;20.38;12.80;;;9.30;92.60;;;;;;4992429;28;20239;-83
2021/04/10 12:14:32;;;;;;;19.30;13.10;;;9.30;92.70;;;;;;4992618;28;20422;-83
2021/04/10 12:16:57;;;;;;;23.40;13.48;;;9.20;92.60;;;;;;4960837;28;20030;-82
2021/04/10 12:19:24;;;;;;;19.45;12.95;;;9.30;92.70;;;;;;4985512;28;20019;-82
2021/04/10 12:21:51;;;;;;;20.65;12.88;;;9.20;92.60;;;;;;4987282;28;20038;-83
2021/04/10 12:24:17;;;;;;;18.70;12.95;;;9.20;92.60;;;;;;4992394;28;20062;-83
2021/04/10 12:26:42;;;;;;;20.00;13.00;;;9.20;92.80;;;;;;4965627;28;20027;-83
2021/04/10 12:29:08;;;;;;;23.08;13.60;;;9.20;92.80;;;;;;4989645;28;20035;-82
2021/04/10 12:31:34;;;;;;;24.13;13.82;;;9.20;93.00;;;;;;5000480;28;20103;-82
2021/04/10 12:34:00;;;;;;;18.98;13.48;;;9.20;93.00;;;;;;5011011;28;20570;-82
2021/04/10 12:36:28;;;;;;;30.70;13.35;;;9.20;93.00;;;;;;4969742;28;20037;-82
2021/04/10 12:38:54;;;;;;;20.02;12.75;;;9.10;93.00;;;;;;4957293;28;20050;-82
2021/04/10 12:41:19;;;;;;;19.48;12.57;;;9.10;93.10;;;;;;4975433;28;20480;-82
2021/04/10 12:43:45;;;;;;;19.17;12.23;;;9.10;93.30;;;;;;4992311;28;20085;-82
2021/04/10 12:46:13;;;;;;;21.10;12.43;;;9.10;93.30;;;;;;4972983;28;20026;-82
2021/04/10 12:48:38;;;;;;;20.95;12.98;;;9.10;93.40;;;;;;4974380;28;20041;-82
2021/04/10 12:51:05;;;;;;;21.35;12.20;;;9.00;93.50;;;;;;4965618;28;20034;-83
2021/04/10 12:53:31;;;;;;;19.75;12.00;;;9.00;93.50;;;;;;4964045;28;20023;-82
2021/04/10 12:55:56;;;;;;;19.63;12.80;;;9.00;93.70;;;;;;4976259;28;20073;-83
2021/04/10 12:58:22;;;;;;;19.10;12.05;;;9.00;93.70;;;;;;4959714;28;20089;-83
2021/04/10 13:00:48;;;;;;;20.80;12.57;;;9.00;93.80;;;;;;4965135;28;20035;-83